Time;durP1;ratioP1;P1;durP2;ratioP2;P2;SDS_P1;SDS_P2;PMS_P1;PMS_P2;Temp;Humidity;BMP_temperature;BMP_pressure;BME280_temperature;BME280_humidity;BME280_pressure;Samples;Min_cycle;Max_cycle;Signal;HPM_P1;HPM_P2
2024/01/09 00:00:15;;;;;;;24.57;12.77;;;-3.70;75.70;;;;;;4925709;28;20215;-71
2024/01/09 00:02:41;;;;;;;30.23;14.13;;;-3.70;75.50;;;;;;4938450;28;20767;-71
2024/01/09 00:05:07;;;;;;;22.70;11.90;;;-3.80;75.40;;;;;;4928752;28;20197;-71
2024/01/09 00:07:32;;;;;;;22.98;12.98;;;-3.80;75.40;;;;;;4944808;28;20198;-70
2024/01/09 00:09:58;;;;;;;31.10;12.93;;;-3.80;75.40;;;;;;4928041;28;20224;-71
2024/01/09 00:12:24;;;;;;;33.80;12.40;;;-3.90;75.20;;;;;;4931193;28;20841;-69
2024/01/09 00:14:49;;;;;;;25.07;12.97;;;-4.10;74.90;;;;;;4924954;28;20195;-72
2024/01/09 00:17:15;;;;;;;26.97;13.33;;;-4.10;75.70;;;;;;4928323;28;20555;-70
2024/01/09 00:19:40;;;;;;;26.67;12.90;;;-4.10;75.50;;;;;;4929304;28;20680;-71
2024/01/09 00:22:06;;;;;;;29.53;14.70;;;-4.20;75.50;;;;;;4926276;28;20254;-71
2024/01/09 00:24:31;;;;;;;24.40;12.50;;;-4.20;75.50;;;;;;4930712;29;20563;-71
2024/01/09 00:26:57;;;;;;;26.83;13.30;;;-4.20;75.70;;;;;;4929400;28;20192;-70
2024/01/09 00:29:23;;;;;;;27.57;13.70;;;-4.30;75.70;;;;;;4928600;29;20594;-72
2024/01/09 00:31:48;;;;;;;26.17;11.10;;;-4.40;75.70;;;;;;4928986;28;20214;-70
2024/01/09 00:34:14;;;;;;;26.20;13.43;;;-4.30;75.80;;;;;;4932995;29;20283;-71
2024/01/09 00:36:43;;;;;;;27.10;13.47;;;-4.40;75.80;;;;;;4933629;28;20555;-72
2024/01/09 00:39:10;;;;;;;24.95;12.35;;;-4.50;75.70;;;;;;4930249;28;20220;-71
2024/01/09 00:41:35;;;;;;;26.83;13.45;;;-4.40;75.80;;;;;;4925563;28;20223;-71
2024/01/09 00:44:01;;;;;;;27.63;13.27;;;-4.40;75.90;;;;;;4938872;28;20188;-70
2024/01/09 00:46:28;;;;;;;22.63;11.87;;;-4.40;75.80;;;;;;4929160;29;20216;-71
2024/01/09 00:48:54;;;;;;;30.58;12.75;;;-4.50;75.70;;;;;;4930870;28;20230;-70
2024/01/09 00:51:19;;;;;;;19.30;11.53;;;-4.40;75.70;;;;;;4931068;28;20231;-71
2024/01/09 00:53:45;;;;;;;27.90;13.77;;;-4.40;75.70;;;;;;4928236;29;20185;-71
2024/01/09 00:56:11;;;;;;;27.10;11.93;;;-4.40;75.70;;;;;;4928744;28;20185;-70
2024/01/09 00:58:36;;;;;;;25.20;11.50;;;-4.30;75.70;;;;;;4927222;29;20204;-71
2024/01/09 01:01:02;;;;;;;25.80;12.20;;;-4.40;75.50;;;;;;4928551;28;20216;-72
2024/01/09 01:03:29;;;;;;;30.13;12.02;;;-4.30;75.20;;;;;;4931512;29;20193;-70
2024/01/09 01:05:55;;;;;;;27.33;13.80;;;-4.40;75.20;;;;;;4932229;29;20243;-73
2024/01/09 01:08:21;;;;;;;33.30;12.37;;;-4.30;75.40;;;;;;4932243;28;20193;-72
2024/01/09 01:10:47;;;;;;;28.08;13.98;;;-4.20;75.20;;;;;;4932483;28;20311;-70
2024/01/09 01:13:13;;;;;;;29.02;12.00;;;-4.40;75.10;;;;;;4928452;28;20192;-70
2024/01/09 01:15:38;;;;;;;21.87;12.80;;;-4.40;74.90;;;;;;4928671;29;20192;-70
2024/01/09 01:18:04;;;;;;;23.67;12.23;;;-4.40;75.10;;;;;;4932372;28;20279;-71
2024/01/09 01:20:30;;;;;;;28.90;12.98;;;-4.40;75.10;;;;;;4928687;28;20610;-70
2024/01/09 01:22:55;;;;;;;26.60;12.47;;;-4.30;75.10;;;;;;4940837;28;20200;-71
2024/01/09 01:25:21;;;;;;;25.10;11.57;;;-4.30;74.90;;;;;;4932311;28;20196;-72
2024/01/09 01:27:47;;;;;;;26.50;12.17;;;-4.50;74.50;;;;;;4930262;28;20200;-70
2024/01/09 01:30:12;;;;;;;26.27;11.90;;;-4.50;74.60;;;;;;4925704;28;20221;-70
2024/01/09 01:32:39;;;;;;;24.07;11.50;;;-4.50;74.90;;;;;;4926938;29;20676;-72
2024/01/09 01:35:05;;;;;;;29.40;12.55;;;-4.40;75.10;;;;;;4935834;28;20192;-71
2024/01/09 01:37:31;;;;;;;27.67;12.20;;;-4.50;74.80;;;;;;4941845;28;20189;-71
2024/01/09 01:39:56;;;;;;;24.83;12.07;;;-4.50;74.60;;;;;;4929229;28;21242;-70
2024/01/09 01:42:22;;;;;;;23.40;11.20;;;-4.40;74.90;;;;;;4927684;28;20559;-70
2024/01/09 01:44:47;;;;;;;30.60;10.77;;;-4.50;74.60;;;;;;4931663;28;20188;-70
2024/01/09 01:47:14;;;;;;;25.00;11.97;;;-4.50;74.80;;;;;;4930996;28;20201;-71
2024/01/09 01:49:40;;;;;;;31.80;13.93;;;-4.50;74.80;;;;;;4929593;28;20188;-70
2024/01/09 01:52:07;;;;;;;29.20;11.77;;;-4.50;74.60;;;;;;4926637;28;20684;-71
2024/01/09 01:54:35;;;;;;;25.25;12.20;;;-4.50;74.60;;;;;;4933108;29;20192;-71
2024/01/09 01:57:03;;;;;;;29.98;13.07;;;-4.50;74.50;;;;;;4933672;29;20216;-70
2024/01/09 01:59:30;;;;;;;27.42;11.70;;;-4.50;74.60;;;;;;4932730;28;20193;-72
2024/01/09 02:01:56;;;;;;;31.17;11.98;;;-4.50;74.30;;;;;;4938290;28;20213;-70
2024/01/09 02:04:23;;;;;;;29.10;12.23;;;-4.60;74.30;;;;;;4933169;28;20180;-70
2024/01/09 02:06:49;;;;;;;32.72;13.38;;;-4.50;74.50;;;;;;4929172;29;20184;-70
2024/01/09 02:09:15;;;;;;;31.33;12.63;;;-4.50;74.50;;;;;;4940099;28;20191;-69
2024/01/09 02:11:42;;;;;;;26.10;11.17;;;-4.50;74.30;;;;;;4931556;28;20488;-69
2024/01/09 02:14:08;;;;;;;24.80;11.88;;;-4.50;74.30;;;;;;4945289;28;20433;-72
2024/01/09 02:16:33;;;;;;;30.50;12.43;;;-4.50;74.30;;;;;;4945801;28;20326;-71
2024/01/09 02:18:59;;;;;;;24.67;12.93;;;-4.40;74.30;;;;;;4935046;28;20227;-71
2024/01/09 02:21:24;;;;;;;27.97;13.43;;;-4.50;74.20;;;;;;4933495;28;20251;-71
2024/01/09 02:23:50;;;;;;;26.73;12.77;;;-4.70;74.00;;;;;;4938709;29;20184;-71
2024/01/09 02:26:20;;;;;;;31.40;13.20;;;-4.60;74.30;;;;;;4929946;29;20192;-70
2024/01/09 02:28:50;;;;;;;31.40;12.52;;;-4.60;74.50;;;;;;4952863;28;20208;-70
2024/01/09 02:31:16;;;;;;;22.35;12.90;;;-4.70;74.20;;;;;;4925842;28;20603;-71
2024/01/09 02:33:43;;;;;;;24.17;12.05;;;-4.70;74.20;;;;;;4931348;28;20204;-70
2024/01/09 02:36:09;;;;;;;25.73;12.57;;;-4.60;74.50;;;;;;4945645;28;20189;-71
2024/01/09 02:38:35;;;;;;;29.53;11.53;;;-4.70;74.20;;;;;;4930944;28;21002;-71
2024/01/09 02:41:00;;;;;;;30.93;12.87;;;-4.70;74.20;;;;;;4925270;29;20268;-72
2024/01/09 02:43:26;;;;;;;22.53;9.83;;;-4.70;74.20;;;;;;4929900;28;20200;-69
2024/01/09 02:45:51;;;;;;;21.57;11.73;;;-4.80;74.20;;;;;;4928775;28;20821;-71
2024/01/09 02:48:17;;;;;;;25.93;11.97;;;-4.70;74.30;;;;;;4930398;28;20191;-71
2024/01/09 02:50:43;;;;;;;28.20;12.53;;;-4.60;74.20;;;;;;4921270;29;20228;-71
2024/01/09 02:53:09;;;;;;;30.93;12.27;;;-4.70;74.20;;;;;;4928345;28;20193;-74
2024/01/09 02:55:35;;;;;;;23.73;12.15;;;-4.70;74.20;;;;;;4928895;28;20197;-71
2024/01/09 02:58:00;;;;;;;27.70;12.50;;;-4.70;74.20;;;;;;4922945;29;20275;-71
2024/01/09 03:00:26;;;;;;;28.20;13.30;;;-4.60;74.30;;;;;;4938320;28;20213;-69
2024/01/09 03:02:51;;;;;;;26.33;12.10;;;-4.60;74.20;;;;;;4931453;29;20193;-69
2024/01/09 03:05:18;;;;;;;33.53;12.83;;;-4.80;74.00;;;;;;4932173;28;20279;-70
2024/01/09 03:07:43;;;;;;;31.20;12.70;;;-4.70;74.30;;;;;;4930919;28;20630;-72
2024/01/09 03:10:09;;;;;;;32.93;14.20;;;-4.70;74.20;;;;;;4930412;28;20756;-72
2024/01/09 03:12:35;;;;;;;22.90;12.70;;;-4.70;74.20;;;;;;4926651;28;20193;-72
2024/01/09 03:15:00;;;;;;;27.47;11.87;;;-4.70;74.00;;;;;;4931269;29;20197;-72
2024/01/09 03:17:26;;;;;;;28.57;12.10;;;-4.70;74.20;;;;;;4928973;29;20195;-72
2024/01/09 03:19:51;;;;;;;24.17;11.33;;;-4.60;74.30;;;;;;4928634;29;20216;-72
2024/01/09 03:22:17;;;;;;;23.67;10.83;;;-4.70;73.90;;;;;;4925013;29;20561;-71
2024/01/09 03:24:42;;;;;;;33.20;11.90;;;-4.70;74.00;;;;;;4928653;28;20192;-70
2024/01/09 03:27:08;;;;;;;25.33;11.63;;;-4.60;74.00;;;;;;4920160;28;20219;-70
2024/01/09 03:29:34;;;;;;;31.53;11.63;;;-4.70;73.90;;;;;;4932432;29;20208;-70
2024/01/09 03:32:00;;;;;;;27.03;11.13;;;-4.60;73.90;;;;;;4929843;29;20949;-72
2024/01/09 03:34:25;;;;;;;22.87;11.83;;;-4.50;73.90;;;;;;4944280;28;20216;-70
2024/01/09 03:36:51;;;;;;;26.60;11.53;;;-4.50;73.90;;;;;;4949942;28;20215;-72
2024/01/09 03:39:16;;;;;;;24.43;11.30;;;-4.60;73.70;;;;;;4951648;28;20196;-71
2024/01/09 03:41:42;;;;;;;29.40;13.47;;;-4.60;73.70;;;;;;4944310;28;20298;-71
2024/01/09 03:44:08;;;;;;;25.57;12.47;;;-4.50;73.90;;;;;;4933224;28;20192;-71
2024/01/09 03:46:34;;;;;;;25.42;11.45;;;-4.60;73.60;;;;;;4951483;28;20488;-71
2024/01/09 03:49:00;;;;;;;25.40;12.13;;;-4.60;73.50;;;;;;4954110;28;20673;-71
2024/01/09 03:51:25;;;;;;;30.23;12.30;;;-4.60;73.50;;;;;;4921727;29;20239;-71
2024/01/09 03:53:51;;;;;;;24.77;11.30;;;-4.70;73.50;;;;;;4926433;28;20343;-70
2024/01/09 03:56:17;;;;;;;27.00;12.38;;;-4.70;73.50;;;;;;4926846;28;20192;-71
2024/01/09 03:58:43;;;;;;;25.17;11.33;;;-4.80;73.60;;;;;;4931173;28;20227;-71
2024/01/09 04:01:08;;;;;;;31.00;12.30;;;-4.90;73.60;;;;;;4923865;28;20278;-71
2024/01/09 04:03:34;;;;;;;27.90;13.17;;;-4.90;73.70;;;;;;4932110;28;20200;-70
2024/01/09 04:06:02;;;;;;;30.97;12.40;;;-5.00;73.60;;;;;;4930633;28;20669;-71
2024/01/09 04:08:27;;;;;;;21.20;11.35;;;-5.00;73.90;;;;;;4931708;28;20192;-71
2024/01/09 04:10:53;;;;;;;22.43;11.73;;;-4.90;73.70;;;;;;4923687;28;20227;-72
2024/01/09 04:13:19;;;;;;;22.13;10.40;;;-4.80;73.90;;;;;;4938630;28;20353;-71
2024/01/09 04:15:45;;;;;;;21.35;10.63;;;-4.70;73.90;;;;;;4938111;28;20185;-71
2024/01/09 04:18:10;;;;;;;25.40;11.37;;;-4.70;73.60;;;;;;4927976;29;20276;-71
2024/01/09 04:20:36;;;;;;;28.23;12.00;;;-4.60;73.60;;;;;;4928096;28;20216;-71
2024/01/09 04:23:02;;;;;;;29.93;12.87;;;-4.50;73.30;;;;;;4930746;29;20235;-71
2024/01/09 04:25:27;;;;;;;25.47;11.70;;;-4.50;73.90;;;;;;4955577;28;20205;-71
2024/01/09 04:27:53;;;;;;;23.50;11.03;;;-4.60;73.30;;;;;;4927281;29;20661;-72
2024/01/09 04:30:18;;;;;;;25.87;12.03;;;-4.50;73.30;;;;;;4939537;28;20220;-71
2024/01/09 04:32:44;;;;;;;21.13;11.10;;;-4.50;73.20;;;;;;4930371;29;20191;-71
2024/01/09 04:35:09;;;;;;;28.00;10.60;;;-4.50;73.20;;;;;;4935612;28;20185;-72
2024/01/09 04:37:35;;;;;;;30.97;12.37;;;-4.70;73.00;;;;;;4927932;28;20193;-71
2024/01/09 04:40:01;;;;;;;23.30;11.37;;;-4.90;73.20;;;;;;4928194;28;20208;-70
2024/01/09 04:42:27;;;;;;;30.03;12.43;;;-4.90;73.20;;;;;;4929418;29;20189;-70
2024/01/09 04:44:52;;;;;;;26.23;9.67;;;-4.90;73.50;;;;;;4929549;29;20214;-71
2024/01/09 04:47:18;;;;;;;25.20;11.60;;;-4.80;73.30;;;;;;4928838;28;20423;-69
2024/01/09 04:49:44;;;;;;;27.40;12.80;;;-4.90;73.50;;;;;;4926107;28;20255;-72
2024/01/09 04:52:09;;;;;;;29.13;12.37;;;-5.10;73.20;;;;;;4928941;29;20192;-71
2024/01/09 04:54:35;;;;;;;24.93;12.30;;;-5.10;73.60;;;;;;4947762;28;20520;-71
2024/01/09 04:57:00;;;;;;;29.67;12.53;;;-5.20;73.70;;;;;;4926465;29;20185;-70
2024/01/09 04:59:26;;;;;;;28.10;11.90;;;-5.20;73.70;;;;;;4924139;28;21013;-71
2024/01/09 05:01:52;;;;;;;23.07;12.07;;;-5.20;73.70;;;;;;4930055;28;20228;-71
2024/01/09 05:04:18;;;;;;;26.20;11.10;;;-5.20;73.90;;;;;;4932462;29;20676;-72
2024/01/09 05:06:43;;;;;;;27.67;11.90;;;-5.20;73.90;;;;;;4935785;29;20193;-70
2024/01/09 05:09:10;;;;;;;22.80;10.27;;;-5.10;73.90;;;;;;4942049;28;20200;-72
2024/01/09 05:11:37;;;;;;;26.27;12.27;;;-5.10;73.90;;;;;;4924974;28;20208;-71
2024/01/09 05:14:03;;;;;;;25.67;11.18;;;-5.20;73.90;;;;;;4928372;29;20193;-70
2024/01/09 05:16:29;;;;;;;24.80;10.50;;;-5.20;73.70;;;;;;4928997;29;20192;-72
2024/01/09 05:18:54;;;;;;;25.30;11.30;;;-5.10;73.90;;;;;;4931741;29;20471;-71
2024/01/09 05:21:21;;;;;;;24.57;11.53;;;-5.10;73.70;;;;;;4928398;28;20567;-70
2024/01/09 05:23:47;;;;;;;20.13;10.90;;;-5.00;73.70;;;;;;4926290;28;20186;-71
2024/01/09 05:26:13;;;;;;;26.43;11.20;;;-4.90;73.60;;;;;;4932538;28;20204;-71
2024/01/09 05:28:39;;;;;;;22.27;10.73;;;-4.90;73.30;;;;;;4928250;28;20204;-71
2024/01/09 05:31:05;;;;;;;24.90;11.40;;;-4.90;73.50;;;;;;4930044;28;20685;-71
2024/01/09 05:33:31;;;;;;;21.93;10.70;;;-5.10;73.30;;;;;;4934766;29;20283;-71
2024/01/09 05:35:58;;;;;;;22.65;10.15;;;-5.20;73.30;;;;;;4939532;29;20255;-71
2024/01/09 05:38:23;;;;;;;22.75;11.05;;;-5.10;73.30;;;;;;4928565;28;20191;-72
2024/01/09 05:40:51;;;;;;;22.93;9.83;;;-5.00;73.70;;;;;;4930533;28;20558;-71
2024/01/09 05:43:17;;;;;;;28.92;12.55;;;-5.10;73.30;;;;;;4935223;28;20287;-71
2024/01/09 05:45:42;;;;;;;21.60;10.20;;;-5.20;73.30;;;;;;4932875;29;20279;-73
2024/01/09 05:48:08;;;;;;;30.80;10.57;;;-5.20;73.60;;;;;;4929464;29;20653;-72
2024/01/09 05:50:33;;;;;;;21.27;10.00;;;-5.10;73.60;;;;;;4924025;28;20282;-71
2024/01/09 05:53:01;;;;;;;21.13;10.10;;;-5.10;73.70;;;;;;4931818;28;20713;-72
2024/01/09 05:55:27;;;;;;;22.42;10.35;;;-5.10;73.60;;;;;;4932603;28;20192;-71
2024/01/09 05:57:52;;;;;;;19.70;10.57;;;-5.00;73.60;;;;;;4931199;28;20185;-71
2024/01/09 06:00:18;;;;;;;23.10;10.60;;;-4.90;73.50;;;;;;4930266;28;20655;-70
2024/01/09 06:02:44;;;;;;;25.80;9.90;;;-4.80;73.30;;;;;;4931408;29;20343;-70
2024/01/09 06:05:10;;;;;;;29.63;12.60;;;-4.80;73.30;;;;;;4930627;28;20424;-70
2024/01/09 06:07:35;;;;;;;31.47;12.13;;;-4.90;73.00;;;;;;4932922;28;20504;-69
2024/01/09 06:10:01;;;;;;;27.90;11.53;;;-4.90;73.00;;;;;;4926859;28;20669;-71
2024/01/09 06:12:27;;;;;;;21.93;10.17;;;-5.00;73.00;;;;;;4929992;28;20205;-71
2024/01/09 06:14:52;;;;;;;23.80;10.03;;;-5.00;73.20;;;;;;4929476;28;20657;-73
2024/01/09 06:17:18;;;;;;;24.70;10.90;;;-4.90;73.20;;;;;;4933057;29;20234;-71
2024/01/09 06:19:44;;;;;;;25.00;10.50;;;-4.80;73.00;;;;;;4931399;28;20195;-73
2024/01/09 06:22:09;;;;;;;33.07;11.43;;;-4.80;73.00;;;;;;4932481;29;20192;-69
2024/01/09 06:24:35;;;;;;;18.53;9.97;;;-4.80;73.00;;;;;;4928610;29;20427;-72
2024/01/09 06:27:01;;;;;;;31.45;11.15;;;-4.70;73.00;;;;;;4934012;29;20199;-72
2024/01/09 06:29:30;;;;;;;22.70;10.07;;;-4.80;73.20;;;;;;4934700;28;20342;-72
2024/01/09 06:31:55;;;;;;;25.02;11.32;;;-4.70;72.90;;;;;;4931512;28;20212;-72
2024/01/09 06:34:21;;;;;;;32.30;11.60;;;-4.70;73.00;;;;;;4932998;29;20568;-71
2024/01/09 06:36:47;;;;;;;20.77;10.10;;;-4.70;72.90;;;;;;4947904;28;20187;-73
2024/01/09 06:39:13;;;;;;;23.70;11.70;;;-4.70;73.00;;;;;;4935376;29;20196;-71
2024/01/09 06:41:38;;;;;;;23.67;10.00;;;-4.70;73.00;;;;;;4935503;28;20225;-71
2024/01/09 06:44:04;;;;;;;17.77;9.87;;;-4.60;73.00;;;;;;4941623;29;20432;-72
2024/01/09 06:46:30;;;;;;;25.80;11.27;;;-4.60;73.30;;;;;;4941909;28;20192;-73
2024/01/09 06:48:56;;;;;;;26.08;10.65;;;-4.60;73.20;;;;;;4937499;28;20192;-73
2024/01/09 06:51:21;;;;;;;27.83;10.87;;;-4.60;73.20;;;;;;4932339;28;20601;-72
2024/01/09 06:53:47;;;;;;;20.30;9.50;;;-4.60;73.20;;;;;;4930370;29;20200;-71
2024/01/09 06:56:13;;;;;;;27.63;11.63;;;-4.60;73.30;;;;;;4934038;29;20208;-71
2024/01/09 06:58:39;;;;;;;25.77;11.47;;;-4.60;73.50;;;;;;4929330;28;20185;-71
2024/01/09 07:01:06;;;;;;;23.20;10.53;;;-4.70;73.30;;;;;;4930211;28;20229;-70
2024/01/09 07:03:32;;;;;;;26.02;11.30;;;-4.80;73.20;;;;;;4930905;28;20432;-71
2024/01/09 07:05:58;;;;;;;27.20;10.70;;;-4.90;73.30;;;;;;4925322;28;20193;-72
2024/01/09 07:08:24;;;;;;;26.63;11.37;;;-4.90;73.50;;;;;;4930792;28;20437;-72
2024/01/09 07:10:49;;;;;;;23.00;10.30;;;-5.00;73.50;;;;;;4930544;28;20466;-72
2024/01/09 07:13:15;;;;;;;23.63;11.40;;;-4.90;73.60;;;;;;4934987;29;20192;-71
2024/01/09 07:15:41;;;;;;;27.87;11.43;;;-4.90;73.70;;;;;;4941742;29;20189;-71
2024/01/09 07:18:07;;;;;;;27.83;12.57;;;-4.90;73.60;;;;;;4934556;29;20206;-71
2024/01/09 07:20:32;;;;;;;24.90;11.23;;;-4.90;73.70;;;;;;4923638;28;20209;-70
2024/01/09 07:22:58;;;;;;;25.03;11.23;;;-4.80;73.70;;;;;;4929076;29;20271;-71
2024/01/09 07:25:24;;;;;;;28.57;11.00;;;-4.80;73.70;;;;;;4927698;28;20196;-71
2024/01/09 07:27:49;;;;;;;24.93;11.03;;;-4.80;73.70;;;;;;4929367;29;20201;-71
2024/01/09 07:30:16;;;;;;;25.67;10.80;;;-4.70;73.60;;;;;;4923602;28;20807;-72
2024/01/09 07:32:42;;;;;;;27.88;11.27;;;-4.70;73.50;;;;;;4942979;28;20689;-71
2024/01/09 07:35:08;;;;;;;25.58;10.07;;;-4.60;73.30;;;;;;4932219;28;20200;-71
2024/01/09 07:37:34;;;;;;;31.20;12.20;;;-4.60;73.30;;;;;;4929308;29;20193;-71
2024/01/09 07:40:00;;;;;;;29.97;11.47;;;-4.60;73.00;;;;;;4921912;28;20480;-71
2024/01/09 07:42:25;;;;;;;26.80;11.70;;;-4.60;73.00;;;;;;4927493;28;20246;-71
2024/01/09 07:44:51;;;;;;;29.33;11.87;;;-4.60;73.20;;;;;;4931036;28;20188;-71
2024/01/09 07:47:16;;;;;;;26.80;12.00;;;-4.60;73.30;;;;;;4930844;29;20181;-71
2024/01/09 07:49:42;;;;;;;29.23;11.47;;;-4.50;73.20;;;;;;4934295;28;20188;-70
2024/01/09 07:52:09;;;;;;;25.33;11.20;;;-4.60;73.00;;;;;;4926725;28;20565;-71
2024/01/09 07:54:34;;;;;;;31.98;12.20;;;-4.60;73.20;;;;;;4932525;28;20197;-72
2024/01/09 07:57:00;;;;;;;24.93;11.90;;;-4.60;73.20;;;;;;4934264;28;20234;-72
2024/01/09 07:59:26;;;;;;;20.70;10.85;;;-4.60;73.20;;;;;;4932895;28;20254;-72
2024/01/09 08:01:55;;;;;;;22.63;11.43;;;-4.60;73.30;;;;;;4925163;28;20217;-70
2024/01/09 08:04:22;;;;;;;24.65;12.10;;;-4.50;73.00;;;;;;4930331;28;20199;-72
2024/01/09 08:06:50;;;;;;;27.63;11.23;;;-4.50;73.00;;;;;;4927341;29;20276;-72
2024/01/09 08:09:18;;;;;;;32.45;10.85;;;-4.50;73.00;;;;;;4930713;29;20200;-71
2024/01/09 08:11:45;;;;;;;26.38;10.70;;;-4.50;73.00;;;;;;4926710;28;20211;-72
2024/01/09 08:14:11;;;;;;;27.48;12.20;;;-4.60;72.90;;;;;;4934171;28;20298;-71
2024/01/09 08:16:37;;;;;;;26.15;10.90;;;-4.50;72.90;;;;;;4929211;29;20189;-72
2024/01/09 08:19:04;;;;;;;20.57;10.53;;;-4.50;72.70;;;;;;4931630;29;20192;-71
2024/01/09 08:21:31;;;;;;;28.33;11.43;;;-4.40;72.70;;;;;;4928745;28;20659;-71
2024/01/09 08:23:58;;;;;;;22.70;10.93;;;-4.40;72.90;;;;;;4935130;28;20194;-70
2024/01/09 08:26:24;;;;;;;24.67;11.25;;;-4.40;72.60;;;;;;4927047;28;20204;-71
2024/01/09 08:28:49;;;;;;;25.33;10.50;;;-4.30;72.60;;;;;;4933138;28;20200;-71
2024/01/09 08:31:16;;;;;;;23.00;11.90;;;-4.20;72.60;;;;;;4940839;28;20212;-71
2024/01/09 08:33:41;;;;;;;25.20;10.30;;;-4.40;72.40;;;;;;4938431;28;20326;-71
2024/01/09 08:36:07;;;;;;;29.40;10.77;;;-4.40;72.10;;;;;;4933279;29;20193;-71
2024/01/09 08:38:32;;;;;;;23.23;11.20;;;-4.40;72.10;;;;;;4932535;29;20184;-72
2024/01/09 08:40:58;;;;;;;25.30;11.60;;;-4.40;72.10;;;;;;4927444;28;20596;-71
2024/01/09 08:43:24;;;;;;;29.20;12.83;;;-4.30;72.00;;;;;;4930044;29;20195;-70
2024/01/09 08:45:50;;;;;;;28.67;12.53;;;-4.30;72.00;;;;;;4922673;29;20216;-71
2024/01/09 08:48:17;;;;;;;30.70;14.03;;;-4.20;72.30;;;;;;4930319;29;20192;-70
2024/01/09 08:50:43;;;;;;;26.10;12.05;;;-4.40;71.80;;;;;;4925568;28;20828;-70
2024/01/09 08:53:10;;;;;;;27.10;10.98;;;-4.50;72.00;;;;;;4934027;29;20247;-71
2024/01/09 08:55:36;;;;;;;28.88;11.18;;;-4.40;72.10;;;;;;4929877;29;20188;-71
2024/01/09 08:58:01;;;;;;;22.73;10.73;;;-4.40;72.30;;;;;;4924206;28;20192;-69
2024/01/09 09:00:27;;;;;;;27.80;11.67;;;-4.40;72.10;;;;;;4926251;28;20226;-71
2024/01/09 09:02:52;;;;;;;29.30;12.13;;;-4.30;72.10;;;;;;4929741;28;20185;-72
2024/01/09 09:05:18;;;;;;;24.83;11.40;;;-4.30;72.00;;;;;;4938001;28;20196;-72
2024/01/09 09:07:44;;;;;;;32.07;12.10;;;-4.30;72.10;;;;;;4928053;28;20185;-71
2024/01/09 09:10:09;;;;;;;26.80;12.13;;;-4.20;72.00;;;;;;4929234;28;20216;-71
2024/01/09 09:12:35;;;;;;;31.53;11.23;;;-4.20;71.40;;;;;;4928920;28;20428;-72
2024/01/09 09:15:04;;;;;;;30.17;13.07;;;-4.20;71.80;;;;;;4935805;29;20192;-71
2024/01/09 09:17:30;;;;;;;26.27;11.90;;;-4.00;71.70;;;;;;4928475;29;20205;-71
2024/01/09 09:19:57;;;;;;;32.35;13.02;;;-4.10;71.30;;;;;;4928216;28;20221;-72
2024/01/09 09:22:25;;;;;;;31.33;12.27;;;-4.10;71.10;;;;;;4932046;29;20181;-72
2024/01/09 09:24:52;;;;;;;36.05;13.60;;;-4.10;71.10;;;;;;4931303;28;20181;-72
2024/01/09 09:27:17;;;;;;;24.92;12.52;;;-4.00;71.30;;;;;;4932567;29;20185;-72
2024/01/09 09:29:43;;;;;;;22.97;11.63;;;-3.90;71.00;;;;;;4925727;28;20278;-72
2024/01/09 09:32:09;;;;;;;31.03;11.90;;;-4.00;70.50;;;;;;4942503;28;20677;-72
2024/01/09 09:34:34;;;;;;;38.03;12.80;;;-4.30;70.40;;;;;;4939924;28;20519;-70
2024/01/09 09:37:00;;;;;;;32.13;12.07;;;-4.10;71.00;;;;;;4932546;29;20195;-71
2024/01/09 09:39:26;;;;;;;28.30;12.00;;;-4.00;71.10;;;;;;4948576;28;20338;-71
2024/01/09 09:41:57;;;;;;;32.97;13.98;;;-4.00;70.40;;;;;;4931877;28;20296;-70
2024/01/09 09:44:25;;;;;;;23.73;10.60;;;-3.90;70.40;;;;;;4937994;29;20193;-71
2024/01/09 09:46:51;;;;;;;29.98;13.23;;;-3.80;69.80;;;;;;4939129;28;20185;-72
2024/01/09 09:49:22;;;;;;;21.10;11.05;;;-3.70;69.90;;;;;;4938128;28;20207;-73
2024/01/09 09:51:49;;;;;;;27.58;12.27;;;-3.70;69.70;;;;;;4931687;28;20299;-71
2024/01/09 09:54:16;;;;;;;29.60;12.60;;;-3.60;69.40;;;;;;4936304;29;20216;-71
2024/01/09 09:56:44;;;;;;;27.08;11.88;;;-3.50;69.10;;;;;;4937210;29;20184;-72
2024/01/09 09:59:13;;;;;;;23.13;12.15;;;-3.40;68.90;;;;;;4936574;29;20189;-72
2024/01/09 10:01:43;;;;;;;30.23;11.90;;;-3.40;68.90;;;;;;4935527;28;20229;-71
2024/01/09 10:04:18;;;;;;;30.80;10.93;;;-3.30;68.50;;;;;;4935086;29;20180;-71
2024/01/09 10:06:46;;;;;;;27.05;11.20;;;-3.20;68.30;;;;;;4934519;29;20184;-72
2024/01/09 10:09:14;;;;;;;30.02;13.15;;;-3.20;68.20;;;;;;4935025;28;20242;-70
2024/01/09 10:11:40;;;;;;;25.02;11.43;;;-3.20;68.00;;;;;;4933692;28;20217;-71
2024/01/09 10:14:08;;;;;;;24.63;11.47;;;-3.30;67.60;;;;;;4934840;28;20192;-69
2024/01/09 10:16:54;;;;;;;25.60;11.40;;;-3.30;67.70;;;;;;4936282;29;20882;-71
2024/01/09 10:19:23;;;;;;;24.98;12.48;;;-3.20;67.50;;;;;;4933435;29;20199;-71
2024/01/09 10:21:49;;;;;;;24.63;10.95;;;-3.00;67.60;;;;;;4939572;28;20282;-72
2024/01/09 10:24:16;;;;;;;22.98;11.30;;;-2.90;67.60;;;;;;4938761;28;20247;-71
2024/01/09 10:26:42;;;;;;;28.60;12.00;;;-2.80;67.00;;;;;;4931330;28;20197;-71
2024/01/09 10:29:13;;;;;;;35.15;11.68;;;-2.80;66.40;;;;;;4930032;28;20583;-70
2024/01/09 10:31:43;;;;;;;31.55;12.70;;;-3.00;65.70;;;;;;4932523;28;20212;-71
2024/01/09 10:34:09;;;;;;;22.90;10.55;;;-3.10;66.10;;;;;;4960788;28;20215;-71
2024/01/09 10:36:34;;;;;;;32.20;10.80;;;-2.90;66.40;;;;;;4965173;28;20659;-72
2024/01/09 10:39:04;;;;;;;29.83;12.23;;;-2.70;66.10;;;;;;4928974;29;20280;-70
2024/01/09 10:41:30;;;;;;;24.65;11.35;;;-2.70;65.60;;;;;;4928655;28;20228;-70
2024/01/09 10:43:56;;;;;;;24.98;12.32;;;-2.60;65.60;;;;;;4932829;29;20316;-71
2024/01/09 10:46:25;;;;;;;30.80;13.20;;;-2.40;65.00;;;;;;4931471;28;20738;-71
2024/01/09 10:48:52;;;;;;;24.35;11.55;;;-2.40;64.70;;;;;;4937771;29;20247;-71
2024/01/09 10:51:18;;;;;;;26.15;11.80;;;-2.30;64.40;;;;;;4924021;28;20208;-71
2024/01/09 10:53:48;;;;;;;23.52;11.05;;;-2.20;63.90;;;;;;4932596;29;20225;-69
2024/01/09 10:56:16;;;;;;;25.80;11.98;;;-2.20;63.40;;;;;;4933060;28;20258;-71
2024/01/09 10:58:46;;;;;;;35.53;13.65;;;-2.10;63.40;;;;;;4935659;29;20188;-71
2024/01/09 11:01:13;;;;;;;25.58;11.27;;;-2.10;63.40;;;;;;4930613;28;20236;-72
2024/01/09 11:03:40;;;;;;;35.80;12.23;;;-2.00;63.10;;;;;;4932627;28;20313;-71
2024/01/09 11:06:07;;;;;;;25.15;11.48;;;-1.90;62.90;;;;;;4936167;28;20572;-71
2024/01/09 11:08:36;;;;;;;27.05;11.93;;;-1.70;62.60;;;;;;4930194;28;20207;-71
2024/01/09 11:11:12;;;;;;;25.73;11.45;;;-1.90;62.00;;;;;;4935281;28;20212;-71
2024/01/09 11:13:42;;;;;;;28.67;12.13;;;-1.90;62.30;;;;;;4943985;28;20190;-70
2024/01/09 11:16:09;;;;;;;21.25;11.93;;;-2.10;62.30;;;;;;4929906;28;20212;-72
2024/01/09 11:18:36;;;;;;;30.90;12.00;;;-2.00;62.80;;;;;;4931969;28;20239;-71
2024/01/09 11:21:03;;;;;;;26.85;11.80;;;-1.90;62.90;;;;;;4924634;28;20267;-71
2024/01/09 11:23:56;;;;;;;23.42;11.27;;;-1.90;62.60;;;;;;4929909;29;20196;-71
2024/01/09 11:26:27;;;;;;;18.58;10.75;;;-1.80;62.50;;;;;;4926009;29;20189;-70
2024/01/09 11:28:52;;;;;;;20.95;10.90;;;-1.90;62.20;;;;;;4928802;29;20286;-70
2024/01/09 11:31:20;;;;;;;22.57;10.53;;;-1.80;62.20;;;;;;4925692;28;20307;-71
2024/01/09 11:33:50;;;;;;;22.10;10.65;;;-1.80;62.50;;;;;;4930461;29;20507;-71
2024/01/09 11:36:37;;;;;;;23.58;10.65;;;-1.80;61.50;;;;;;4933042;28;20196;-70
2024/01/09 11:39:04;;;;;;;28.23;12.90;;;-1.60;61.70;;;;;;4930799;29;20188;-71
2024/01/09 11:41:35;;;;;;;23.20;10.23;;;-1.70;61.30;;;;;;4925497;28;20228;-69
2024/01/09 11:44:11;;;;;;;24.13;10.65;;;-1.60;61.50;;;;;;4929944;28;20606;-71
2024/01/09 11:46:38;;;;;;;25.23;10.80;;;-1.60;61.30;;;;;;4926170;28;20193;-71
2024/01/09 11:49:05;;;;;;;28.27;11.73;;;-1.60;61.00;;;;;;4937086;28;20268;-70
2024/01/09 11:51:33;;;;;;;25.10;12.32;;;-1.70;60.40;;;;;;4929598;28;20212;-70
2024/01/09 11:54:00;;;;;;;23.65;12.20;;;-1.60;60.60;;;;;;4941979;28;20739;-71
2024/01/09 11:56:26;;;;;;;18.77;10.23;;;-1.50;60.60;;;;;;4929813;29;20242;-70
2024/01/09 11:58:53;;;;;;;21.98;10.85;;;-1.50;60.40;;;;;;4926461;28;20181;-70
2024/01/09 12:01:20;;;;;;;28.35;10.95;;;-1.40;60.40;;;;;;4925706;28;20312;-70
2024/01/09 12:03:53;;;;;;;26.10;10.90;;;-1.30;60.30;;;;;;4931293;29;20559;-71
2024/01/09 12:06:21;;;;;;;21.95;10.77;;;-1.10;59.60;;;;;;4947823;28;20211;-70
2024/01/09 12:08:47;;;;;;;23.55;9.90;;;-1.00;59.50;;;;;;4930410;28;20185;-70
2024/01/09 12:11:13;;;;;;;25.27;10.83;;;-0.90;58.80;;;;;;4923546;28;20275;-70
2024/01/09 12:13:38;;;;;;;26.93;10.80;;;-0.80;58.10;;;;;;4933122;29;20189;-69
2024/01/09 12:16:21;;;;;;;23.60;10.37;;;-0.80;57.60;;;;;;4938570;29;20280;-70
2024/01/09 12:18:50;;;;;;;21.45;10.48;;;-0.90;57.30;;;;;;4940496;28;20185;-71
2024/01/09 12:21:17;;;;;;;21.00;10.50;;;-1.00;57.80;;;;;;4919042;28;20247;-70
2024/01/09 12:23:43;;;;;;;20.70;10.80;;;-1.00;58.10;;;;;;4926983;29;20212;-70